sensor_id;sensor_type;location;lat;lon;timestamp;P1;durP1;ratioP1;P2;durP2;ratioP2
71572;SDS011;59408;51.032;9.410;2022-12-18T00:01:38;27.07;;;10.47;;
71572;SDS011;59408;51.032;9.410;2022-12-18T00:04:05;24.50;;;9.27;;
71572;SDS011;59408;51.032;9.410;2022-12-18T00:06:33;23.13;;;9.75;;
71572;SDS011;59408;51.032;9.410;2022-12-18T00:09:02;28.38;;;10.48;;
71572;SDS011;59408;51.032;9.410;2022-12-18T00:11:31;24.60;;;9.57;;
71572;SDS011;59408;51.032;9.410;2022-12-18T00:13:58;27.17;;;9.87;;
71572;SDS011;59408;51.032;9.410;2022-12-18T00:16:26;28.98;;;10.70;;
71572;SDS011;59408;51.032;9.410;2022-12-18T00:18:55;27.17;;;10.98;;
71572;SDS011;59408;51.032;9.410;2022-12-18T00:21:23;30.75;;;10.52;;
71572;SDS011;59408;51.032;9.410;2022-12-18T00:23:49;26.05;;;10.93;;
71572;SDS011;59408;51.032;9.410;2022-12-18T00:26:17;27.77;;;10.07;;
71572;SDS011;59408;51.032;9.410;2022-12-18T00:28:47;28.80;;;10.95;;
71572;SDS011;59408;51.032;9.410;2022-12-18T00:31:15;25.25;;;10.27;;
71572;SDS011;59408;51.032;9.410;2022-12-18T00:33:43;28.45;;;11.10;;
71572;SDS011;59408;51.032;9.410;2022-12-18T00:36:11;32.03;;;10.32;;
71572;SDS011;59408;51.032;9.410;2022-12-18T00:38:39;29.73;;;11.80;;
71572;SDS011;59408;51.032;9.410;2022-12-18T00:41:07;28.98;;;10.95;;
71572;SDS011;59408;51.032;9.410;2022-12-18T00:43:38;25.48;;;10.80;;
71572;SDS011;59408;51.032;9.410;2022-12-18T00:46:07;29.52;;;10.18;;
71572;SDS011;59408;51.032;9.410;2022-12-18T00:48:34;30.30;;;14.05;;
71572;SDS011;59408;51.032;9.410;2022-12-18T00:51:01;26.83;;;11.23;;
71572;SDS011;59408;51.032;9.410;2022-12-18T00:53:28;23.25;;;8.38;;
71572;SDS011;59408;51.032;9.410;2022-12-18T00:55:54;17.85;;;7.78;;
71572;SDS011;59408;51.032;9.410;2022-12-18T00:58:21;20.75;;;7.38;;
71572;SDS011;59408;51.032;9.410;2022-12-18T01:00:47;21.00;;;7.65;;
71572;SDS011;59408;51.032;9.410;2022-12-18T01:03:15;19.47;;;8.63;;
71572;SDS011;59408;51.032;9.410;2022-12-18T01:05:42;22.23;;;9.00;;
71572;SDS011;59408;51.032;9.410;2022-12-18T01:08:09;26.23;;;9.52;;
71572;SDS011;59408;51.032;9.410;2022-12-18T01:10:35;24.55;;;9.77;;
71572;SDS011;59408;51.032;9.410;2022-12-18T01:13:02;28.10;;;10.02;;
71572;SDS011;59408;51.032;9.410;2022-12-18T01:15:29;24.00;;;9.07;;
71572;SDS011;59408;51.032;9.410;2022-12-18T01:17:55;24.15;;;9.60;;
71572;SDS011;59408;51.032;9.410;2022-12-18T01:20:23;19.75;;;9.52;;
71572;SDS011;59408;51.032;9.410;2022-12-18T01:22:50;20.65;;;8.88;;
71572;SDS011;59408;51.032;9.410;2022-12-18T01:25:17;18.02;;;7.78;;
71572;SDS011;59408;51.032;9.410;2022-12-18T01:27:44;19.00;;;8.30;;
71572;SDS011;59408;51.032;9.410;2022-12-18T01:30:10;17.70;;;7.78;;
71572;SDS011;59408;51.032;9.410;2022-12-18T01:32:37;18.92;;;9.10;;
71572;SDS011;59408;51.032;9.410;2022-12-18T01:35:05;24.08;;;8.32;;
71572;SDS011;59408;51.032;9.410;2022-12-18T01:37:33;20.50;;;8.93;;
71572;SDS011;59408;51.032;9.410;2022-12-18T01:40:00;19.93;;;7.93;;
71572;SDS011;59408;51.032;9.410;2022-12-18T01:42:27;19.25;;;7.90;;
71572;SDS011;59408;51.032;9.410;2022-12-18T01:44:55;19.85;;;7.88;;
71572;SDS011;59408;51.032;9.410;2022-12-18T01:47:28;19.30;;;7.53;;
71572;SDS011;59408;51.032;9.410;2022-12-18T01:49:58;24.73;;;9.52;;
71572;SDS011;59408;51.032;9.410;2022-12-18T01:52:29;19.97;;;8.30;;
71572;SDS011;59408;51.032;9.410;2022-12-18T01:55:00;19.98;;;7.88;;
71572;SDS011;59408;51.032;9.410;2022-12-18T01:57:29;23.13;;;8.45;;
71572;SDS011;59408;51.032;9.410;2022-12-18T01:59:57;21.52;;;7.63;;
71572;SDS011;59408;51.032;9.410;2022-12-18T02:02:27;20.00;;;6.93;;
71572;SDS011;59408;51.032;9.410;2022-12-18T02:04:55;16.50;;;8.17;;
71572;SDS011;59408;51.032;9.410;2022-12-18T02:07:24;23.25;;;7.57;;
71572;SDS011;59408;51.032;9.410;2022-12-18T02:10:02;19.02;;;8.05;;
71572;SDS011;59408;51.032;9.410;2022-12-18T02:12:34;20.60;;;7.82;;
71572;SDS011;59408;51.032;9.410;2022-12-18T02:15:10;22.25;;;8.65;;
71572;SDS011;59408;51.032;9.410;2022-12-18T02:17:42;18.47;;;7.00;;
71572;SDS011;59408;51.032;9.410;2022-12-18T02:20:14;19.52;;;7.25;;
71572;SDS011;59408;51.032;9.410;2022-12-18T02:22:50;17.27;;;6.88;;
71572;SDS011;59408;51.032;9.410;2022-12-18T02:25:33;16.42;;;7.53;;
71572;SDS011;59408;51.032;9.410;2022-12-18T02:28:11;20.08;;;7.65;;
71572;SDS011;59408;51.032;9.410;2022-12-18T02:30:44;18.53;;;6.60;;
71572;SDS011;59408;51.032;9.410;2022-12-18T02:33:13;22.23;;;7.13;;
71572;SDS011;59408;51.032;9.410;2022-12-18T02:35:41;18.60;;;7.60;;
71572;SDS011;59408;51.032;9.410;2022-12-18T02:38:09;20.10;;;7.15;;
71572;SDS011;59408;51.032;9.410;2022-12-18T02:40:38;19.80;;;7.38;;
71572;SDS011;59408;51.032;9.410;2022-12-18T02:43:07;21.37;;;8.37;;
71572;SDS011;59408;51.032;9.410;2022-12-18T02:45:36;19.70;;;7.53;;
71572;SDS011;59408;51.032;9.410;2022-12-18T02:48:12;16.67;;;6.90;;
71572;SDS011;59408;51.032;9.410;2022-12-18T02:50:41;13.88;;;6.30;;
71572;SDS011;59408;51.032;9.410;2022-12-18T02:53:17;14.15;;;6.85;;
71572;SDS011;59408;51.032;9.410;2022-12-18T02:55:54;15.97;;;6.33;;
71572;SDS011;59408;51.032;9.410;2022-12-18T02:58:30;15.13;;;6.32;;
71572;SDS011;59408;51.032;9.410;2022-12-18T03:01:09;15.07;;;6.55;;
71572;SDS011;59408;51.032;9.410;2022-12-18T03:03:41;16.80;;;7.05;;
71572;SDS011;59408;51.032;9.410;2022-12-18T03:06:12;17.60;;;7.03;;
71572;SDS011;59408;51.032;9.410;2022-12-18T03:08:45;17.13;;;6.67;;
71572;SDS011;59408;51.032;9.410;2022-12-18T03:11:16;17.05;;;6.38;;
71572;SDS011;59408;51.032;9.410;2022-12-18T03:13:43;18.38;;;7.28;;
71572;SDS011;59408;51.032;9.410;2022-12-18T03:16:17;13.00;;;5.90;;
71572;SDS011;59408;51.032;9.410;2022-12-18T03:18:49;16.80;;;5.45;;
71572;SDS011;59408;51.032;9.410;2022-12-18T03:21:21;12.67;;;5.63;;
71572;SDS011;59408;51.032;9.410;2022-12-18T03:23:52;13.55;;;5.65;;
71572;SDS011;59408;51.032;9.410;2022-12-18T03:26:25;14.63;;;5.38;;
71572;SDS011;59408;51.032;9.410;2022-12-18T03:28:54;12.82;;;5.20;;
71572;SDS011;59408;51.032;9.410;2022-12-18T03:31:27;15.32;;;5.78;;
71572;SDS011;59408;51.032;9.410;2022-12-18T03:33:57;15.00;;;5.93;;
71572;SDS011;59408;51.032;9.410;2022-12-18T03:36:30;19.00;;;6.05;;
71572;SDS011;59408;51.032;9.410;2022-12-18T03:38:56;14.70;;;5.72;;
71572;SDS011;59408;51.032;9.410;2022-12-18T03:41:24;16.83;;;5.88;;
71572;SDS011;59408;51.032;9.410;2022-12-18T03:43:58;16.25;;;6.25;;
71572;SDS011;59408;51.032;9.410;2022-12-18T03:46:36;14.97;;;5.07;;
71572;SDS011;59408;51.032;9.410;2022-12-18T03:49:10;12.40;;;5.13;;
71572;SDS011;59408;51.032;9.410;2022-12-18T03:51:41;13.32;;;6.30;;
71572;SDS011;59408;51.032;9.410;2022-12-18T03:54:14;15.50;;;6.65;;
71572;SDS011;59408;51.032;9.410;2022-12-18T03:56:45;17.75;;;6.78;;
71572;SDS011;59408;51.032;9.410;2022-12-18T03:59:15;12.20;;;5.30;;
71572;SDS011;59408;51.032;9.410;2022-12-18T04:01:45;17.02;;;6.75;;
71572;SDS011;59408;51.032;9.410;2022-12-18T04:04:14;14.90;;;6.15;;
71572;SDS011;59408;51.032;9.410;2022-12-18T04:06:42;19.75;;;5.93;;
71572;SDS011;59408;51.032;9.410;2022-12-18T04:09:11;15.35;;;5.93;;
71572;SDS011;59408;51.032;9.410;2022-12-18T04:11:39;14.17;;;5.57;;
71572;SDS011;59408;51.032;9.410;2022-12-18T04:14:06;13.00;;;5.63;;
71572;SDS011;59408;51.032;9.410;2022-12-18T04:16:34;14.73;;;5.88;;
71572;SDS011;59408;51.032;9.410;2022-12-18T04:19:02;14.02;;;5.72;;
71572;SDS011;59408;51.032;9.410;2022-12-18T04:21:29;15.57;;;5.60;;
71572;SDS011;59408;51.032;9.410;2022-12-18T04:23:55;14.27;;;5.63;;
71572;SDS011;59408;51.032;9.410;2022-12-18T04:26:22;13.57;;;5.50;;
71572;SDS011;59408;51.032;9.410;2022-12-18T04:28:49;15.00;;;5.65;;
71572;SDS011;59408;51.032;9.410;2022-12-18T04:31:15;15.85;;;6.07;;
71572;SDS011;59408;51.032;9.410;2022-12-18T04:33:42;12.90;;;5.57;;
71572;SDS011;59408;51.032;9.410;2022-12-18T04:36:10;13.67;;;5.53;;
71572;SDS011;59408;51.032;9.410;2022-12-18T04:38:36;14.68;;;6.45;;
71572;SDS011;59408;51.032;9.410;2022-12-18T04:41:03;14.52;;;5.90;;
71572;SDS011;59408;51.032;9.410;2022-12-18T04:43:30;16.33;;;5.90;;
71572;SDS011;59408;51.032;9.410;2022-12-18T04:46:01;13.23;;;5.88;;
71572;SDS011;59408;51.032;9.410;2022-12-18T04:48:28;17.17;;;6.27;;
71572;SDS011;59408;51.032;9.410;2022-12-18T04:50:54;19.38;;;6.15;;
71572;SDS011;59408;51.032;9.410;2022-12-18T04:53:22;14.00;;;4.78;;
71572;SDS011;59408;51.032;9.410;2022-12-18T04:55:49;14.70;;;5.50;;
71572;SDS011;59408;51.032;9.410;2022-12-18T04:58:16;11.02;;;5.35;;
71572;SDS011;59408;51.032;9.410;2022-12-18T05:00:42;13.53;;;4.57;;
71572;SDS011;59408;51.032;9.410;2022-12-18T05:03:09;12.85;;;5.07;;
71572;SDS011;59408;51.032;9.410;2022-12-18T05:05:35;11.68;;;5.60;;
71572;SDS011;59408;51.032;9.410;2022-12-18T05:08:02;15.15;;;5.55;;
71572;SDS011;59408;51.032;9.410;2022-12-18T05:10:30;13.93;;;5.95;;
71572;SDS011;59408;51.032;9.410;2022-12-18T05:13:03;14.53;;;5.33;;
71572;SDS011;59408;51.032;9.410;2022-12-18T05:15:30;13.43;;;5.72;;
71572;SDS011;59408;51.032;9.410;2022-12-18T05:17:58;11.40;;;5.05;;
71572;SDS011;59408;51.032;9.410;2022-12-18T05:20:26;15.40;;;5.10;;
71572;SDS011;59408;51.032;9.410;2022-12-18T05:22:54;11.57;;;5.35;;
71572;SDS011;59408;51.032;9.410;2022-12-18T05:25:21;9.33;;;4.00;;
71572;SDS011;59408;51.032;9.410;2022-12-18T05:27:49;15.57;;;4.95;;
71572;SDS011;59408;51.032;9.410;2022-12-18T05:30:16;13.05;;;5.13;;
71572;SDS011;59408;51.032;9.410;2022-12-18T05:32:43;12.75;;;5.50;;
71572;SDS011;59408;51.032;9.410;2022-12-18T05:35:10;15.15;;;5.20;;
71572;SDS011;59408;51.032;9.410;2022-12-18T05:37:37;11.40;;;4.30;;
71572;SDS011;59408;51.032;9.410;2022-12-18T05:40:08;11.15;;;4.15;;
71572;SDS011;59408;51.032;9.410;2022-12-18T05:42:36;13.13;;;5.22;;
71572;SDS011;59408;51.032;9.410;2022-12-18T05:45:05;12.15;;;4.68;;
71572;SDS011;59408;51.032;9.410;2022-12-18T05:47:32;10.80;;;4.35;;
71572;SDS011;59408;51.032;9.410;2022-12-18T05:49:58;13.57;;;4.57;;
71572;SDS011;59408;51.032;9.410;2022-12-18T05:52:25;12.63;;;5.13;;
71572;SDS011;59408;51.032;9.410;2022-12-18T05:54:52;12.93;;;5.90;;
71572;SDS011;59408;51.032;9.410;2022-12-18T05:57:19;10.65;;;4.20;;
71572;SDS011;59408;51.032;9.410;2022-12-18T05:59:45;15.55;;;5.40;;
71572;SDS011;59408;51.032;9.410;2022-12-18T06:02:13;13.40;;;5.13;;
71572;SDS011;59408;51.032;9.410;2022-12-18T06:04:40;11.85;;;4.93;;
71572;SDS011;59408;51.032;9.410;2022-12-18T06:07:07;17.10;;;5.85;;
71572;SDS011;59408;51.032;9.410;2022-12-18T06:09:33;13.38;;;5.47;;
71572;SDS011;59408;51.032;9.410;2022-12-18T06:11:59;10.43;;;4.43;;
71572;SDS011;59408;51.032;9.410;2022-12-18T06:14:26;9.93;;;4.93;;
71572;SDS011;59408;51.032;9.410;2022-12-18T06:16:53;14.65;;;4.78;;
71572;SDS011;59408;51.032;9.410;2022-12-18T06:19:21;14.10;;;5.55;;
71572;SDS011;59408;51.032;9.410;2022-12-18T06:21:47;13.18;;;5.15;;
71572;SDS011;59408;51.032;9.410;2022-12-18T06:24:14;14.90;;;6.35;;
71572;SDS011;59408;51.032;9.410;2022-12-18T06:26:41;31.40;;;10.10;;
71572;SDS011;59408;51.032;9.410;2022-12-18T06:29:07;20.63;;;7.55;;
71572;SDS011;59408;51.032;9.410;2022-12-18T06:31:34;20.15;;;6.82;;
71572;SDS011;59408;51.032;9.410;2022-12-18T06:34:01;18.35;;;6.28;;
71572;SDS011;59408;51.032;9.410;2022-12-18T06:36:30;16.05;;;6.80;;
71572;SDS011;59408;51.032;9.410;2022-12-18T06:38:57;18.07;;;6.10;;
71572;SDS011;59408;51.032;9.410;2022-12-18T06:41:24;20.35;;;7.70;;
71572;SDS011;59408;51.032;9.410;2022-12-18T06:43:51;22.27;;;7.07;;
71572;SDS011;59408;51.032;9.410;2022-12-18T06:46:24;20.88;;;6.65;;
71572;SDS011;59408;51.032;9.410;2022-12-18T06:48:51;14.30;;;6.07;;
71572;SDS011;59408;51.032;9.410;2022-12-18T06:51:18;24.87;;;7.50;;
71572;SDS011;59408;51.032;9.410;2022-12-18T06:53:47;16.80;;;7.68;;
71572;SDS011;59408;51.032;9.410;2022-12-18T06:56:14;23.05;;;8.63;;
71572;SDS011;59408;51.032;9.410;2022-12-18T06:58:41;21.83;;;8.57;;
71572;SDS011;59408;51.032;9.410;2022-12-18T07:01:08;18.40;;;7.45;;
71572;SDS011;59408;51.032;9.410;2022-12-18T07:03:36;17.73;;;7.40;;
71572;SDS011;59408;51.032;9.410;2022-12-18T07:06:03;15.40;;;6.88;;
71572;SDS011;59408;51.032;9.410;2022-12-18T07:08:30;14.10;;;6.88;;
71572;SDS011;59408;51.032;9.410;2022-12-18T07:10:58;14.43;;;6.30;;
71572;SDS011;59408;51.032;9.410;2022-12-18T07:13:24;15.63;;;5.30;;
71572;SDS011;59408;51.032;9.410;2022-12-18T07:15:51;16.03;;;6.37;;
71572;SDS011;59408;51.032;9.410;2022-12-18T07:18:17;19.25;;;6.68;;
71572;SDS011;59408;51.032;9.410;2022-12-18T07:20:44;17.13;;;6.50;;
71572;SDS011;59408;51.032;9.410;2022-12-18T07:23:12;19.00;;;6.97;;
71572;SDS011;59408;51.032;9.410;2022-12-18T07:25:39;19.30;;;8.10;;
71572;SDS011;59408;51.032;9.410;2022-12-18T07:28:07;13.93;;;6.20;;
71572;SDS011;59408;51.032;9.410;2022-12-18T07:30:42;15.43;;;6.55;;
71572;SDS011;59408;51.032;9.410;2022-12-18T07:33:09;17.88;;;7.13;;
71572;SDS011;59408;51.032;9.410;2022-12-18T07:35:35;17.70;;;7.30;;
71572;SDS011;59408;51.032;9.410;2022-12-18T07:38:03;16.17;;;6.28;;
71572;SDS011;59408;51.032;9.410;2022-12-18T07:40:29;14.40;;;6.37;;
71572;SDS011;59408;51.032;9.410;2022-12-18T07:42:56;14.35;;;5.85;;
71572;SDS011;59408;51.032;9.410;2022-12-18T07:45:24;13.00;;;5.55;;
71572;SDS011;59408;51.032;9.410;2022-12-18T07:47:51;12.57;;;5.80;;
71572;SDS011;59408;51.032;9.410;2022-12-18T07:50:18;14.73;;;6.28;;
71572;SDS011;59408;51.032;9.410;2022-12-18T07:52:45;12.13;;;5.93;;
71572;SDS011;59408;51.032;9.410;2022-12-18T07:55:12;20.50;;;6.93;;
71572;SDS011;59408;51.032;9.410;2022-12-18T07:57:39;18.20;;;8.85;;
71572;SDS011;59408;51.032;9.410;2022-12-18T08:00:17;19.42;;;7.82;;
71572;SDS011;59408;51.032;9.410;2022-12-18T08:02:46;23.80;;;8.27;;
71572;SDS011;59408;51.032;9.410;2022-12-18T08:05:14;19.70;;;7.40;;
71572;SDS011;59408;51.032;9.410;2022-12-18T08:07:41;17.02;;;6.90;;
71572;SDS011;59408;51.032;9.410;2022-12-18T08:10:08;14.10;;;8.27;;
71572;SDS011;59408;51.032;9.410;2022-12-18T08:12:35;20.33;;;8.43;;
71572;SDS011;59408;51.032;9.410;2022-12-18T08:15:02;32.83;;;10.68;;
71572;SDS011;59408;51.032;9.410;2022-12-18T08:17:31;28.90;;;10.00;;
71572;SDS011;59408;51.032;9.410;2022-12-18T08:19:59;26.52;;;10.80;;
71572;SDS011;59408;51.032;9.410;2022-12-18T08:22:26;24.30;;;8.15;;
71572;SDS011;59408;51.032;9.410;2022-12-18T08:24:53;24.77;;;8.57;;
71572;SDS011;59408;51.032;9.410;2022-12-18T08:27:19;18.73;;;8.27;;
71572;SDS011;59408;51.032;9.410;2022-12-18T08:29:56;22.37;;;8.57;;
71572;SDS011;59408;51.032;9.410;2022-12-18T08:32:24;21.02;;;9.07;;
71572;SDS011;59408;51.032;9.410;2022-12-18T08:34:51;23.80;;;8.98;;
71572;SDS011;59408;51.032;9.410;2022-12-18T08:37:19;18.67;;;8.10;;
71572;SDS011;59408;51.032;9.410;2022-12-18T08:39:45;19.88;;;7.28;;
71572;SDS011;59408;51.032;9.410;2022-12-18T08:42:12;20.97;;;8.47;;
71572;SDS011;59408;51.032;9.410;2022-12-18T08:44:39;16.23;;;7.75;;
71572;SDS011;59408;51.032;9.410;2022-12-18T08:47:05;19.63;;;9.25;;
71572;SDS011;59408;51.032;9.410;2022-12-18T08:49:33;22.17;;;8.93;;
71572;SDS011;59408;51.032;9.410;2022-12-18T08:52:00;20.38;;;9.57;;
71572;SDS011;59408;51.032;9.410;2022-12-18T08:54:28;23.07;;;10.33;;
71572;SDS011;59408;51.032;9.410;2022-12-18T08:56:54;21.55;;;9.68;;
71572;SDS011;59408;51.032;9.410;2022-12-18T08:59:21;21.77;;;10.25;;
71572;SDS011;59408;51.032;9.410;2022-12-18T09:01:49;25.02;;;11.25;;
71572;SDS011;59408;51.032;9.410;2022-12-18T09:04:16;25.38;;;11.35;;
71572;SDS011;59408;51.032;9.410;2022-12-18T09:06:43;17.37;;;7.83;;
71572;SDS011;59408;51.032;9.410;2022-12-18T09:09:09;25.75;;;11.15;;
71572;SDS011;59408;51.032;9.410;2022-12-18T09:11:37;22.20;;;11.23;;
71572;SDS011;59408;51.032;9.410;2022-12-18T09:14:04;28.23;;;11.63;;
71572;SDS011;59408;51.032;9.410;2022-12-18T09:16:31;23.27;;;10.77;;
71572;SDS011;59408;51.032;9.410;2022-12-18T09:18:59;20.97;;;8.33;;
71572;SDS011;59408;51.032;9.410;2022-12-18T09:21:27;22.75;;;9.30;;
71572;SDS011;59408;51.032;9.410;2022-12-18T09:23:55;19.67;;;9.10;;
71572;SDS011;59408;51.032;9.410;2022-12-18T09:26:22;20.08;;;8.50;;
71572;SDS011;59408;51.032;9.410;2022-12-18T09:28:51;23.42;;;8.57;;
71572;SDS011;59408;51.032;9.410;2022-12-18T09:31:19;21.67;;;8.90;;
71572;SDS011;59408;51.032;9.410;2022-12-18T09:33:47;22.83;;;9.77;;
71572;SDS011;59408;51.032;9.410;2022-12-18T09:36:15;24.70;;;9.38;;
71572;SDS011;59408;51.032;9.410;2022-12-18T09:38:43;21.98;;;7.80;;
71572;SDS011;59408;51.032;9.410;2022-12-18T09:41:15;20.83;;;9.23;;
71572;SDS011;59408;51.032;9.410;2022-12-18T09:43:55;19.10;;;8.40;;
71572;SDS011;59408;51.032;9.410;2022-12-18T09:46:27;21.33;;;8.52;;
71572;SDS011;59408;51.032;9.410;2022-12-18T09:48:57;18.67;;;8.35;;
71572;SDS011;59408;51.032;9.410;2022-12-18T09:51:27;19.33;;;8.05;;
71572;SDS011;59408;51.032;9.410;2022-12-18T09:53:57;24.98;;;8.82;;
71572;SDS011;59408;51.032;9.410;2022-12-18T09:56:29;23.37;;;8.60;;
71572;SDS011;59408;51.032;9.410;2022-12-18T09:59:02;22.65;;;8.93;;
71572;SDS011;59408;51.032;9.410;2022-12-18T10:01:31;21.73;;;8.52;;
71572;SDS011;59408;51.032;9.410;2022-12-18T10:04:07;23.92;;;8.18;;
71572;SDS011;59408;51.032;9.410;2022-12-18T10:06:36;18.25;;;8.85;;
71572;SDS011;59408;51.032;9.410;2022-12-18T10:09:09;21.60;;;8.93;;
71572;SDS011;59408;51.032;9.410;2022-12-18T10:11:48;22.45;;;8.40;;
71572;SDS011;59408;51.032;9.410;2022-12-18T10:14:26;19.20;;;7.82;;
71572;SDS011;59408;51.032;9.410;2022-12-18T10:17:02;21.08;;;7.97;;
71572;SDS011;59408;51.032;9.410;2022-12-18T10:19:41;18.25;;;8.20;;
71572;SDS011;59408;51.032;9.410;2022-12-18T10:22:15;20.47;;;8.33;;
71572;SDS011;59408;51.032;9.410;2022-12-18T10:24:52;21.73;;;8.52;;
71572;SDS011;59408;51.032;9.410;2022-12-18T10:27:26;17.45;;;7.10;;
71572;SDS011;59408;51.032;9.410;2022-12-18T10:29:54;18.42;;;8.30;;
71572;SDS011;59408;51.032;9.410;2022-12-18T10:32:22;22.10;;;8.75;;
71572;SDS011;59408;51.032;9.410;2022-12-18T10:34:51;22.07;;;8.93;;
71572;SDS011;59408;51.032;9.410;2022-12-18T10:37:26;24.88;;;9.10;;
71572;SDS011;59408;51.032;9.410;2022-12-18T10:40:07;20.15;;;9.15;;
71572;SDS011;59408;51.032;9.410;2022-12-18T10:42:42;22.58;;;8.63;;
71572;SDS011;59408;51.032;9.410;2022-12-18T10:45:12;27.58;;;10.52;;
71572;SDS011;59408;51.032;9.410;2022-12-18T10:47:42;21.63;;;9.53;;
71572;SDS011;59408;51.032;9.410;2022-12-18T10:50:18;28.58;;;10.48;;
71572;SDS011;59408;51.032;9.410;2022-12-18T10:52:57;29.80;;;11.43;;
71572;SDS011;59408;51.032;9.410;2022-12-18T10:55:27;24.15;;;10.38;;
71572;SDS011;59408;51.032;9.410;2022-12-18T10:58:05;26.10;;;10.95;;
71572;SDS011;59408;51.032;9.410;2022-12-18T11:00:47;25.13;;;10.57;;
71572;SDS011;59408;51.032;9.410;2022-12-18T11:03:30;23.92;;;9.48;;
71572;SDS011;59408;51.032;9.410;2022-12-18T11:06:02;28.38;;;11.32;;
71572;SDS011;59408;51.032;9.410;2022-12-18T11:08:30;25.70;;;10.18;;
71572;SDS011;59408;51.032;9.410;2022-12-18T11:10:57;26.83;;;10.23;;
71572;SDS011;59408;51.032;9.410;2022-12-18T11:13:24;26.97;;;11.80;;
71572;SDS011;59408;51.032;9.410;2022-12-18T11:15:54;30.77;;;10.95;;
71572;SDS011;59408;51.032;9.410;2022-12-18T11:18:22;24.42;;;10.65;;
71572;SDS011;59408;51.032;9.410;2022-12-18T11:20:53;20.88;;;8.25;;
71572;SDS011;59408;51.032;9.410;2022-12-18T11:23:24;22.45;;;9.60;;
71572;SDS011;59408;51.032;9.410;2022-12-18T11:25:52;22.70;;;9.50;;
71572;SDS011;59408;51.032;9.410;2022-12-18T11:28:28;23.85;;;8.52;;
71572;SDS011;59408;51.032;9.410;2022-12-18T11:31:22;20.98;;;8.02;;
71572;SDS011;59408;51.032;9.410;2022-12-18T11:33:53;24.02;;;9.20;;
71572;SDS011;59408;51.032;9.410;2022-12-18T11:36:45;21.60;;;9.52;;
71572;SDS011;59408;51.032;9.410;2022-12-18T11:39:14;24.53;;;9.17;;
71572;SDS011;59408;51.032;9.410;2022-12-18T11:41:49;24.65;;;9.43;;
71572;SDS011;59408;51.032;9.410;2022-12-18T11:44:19;21.95;;;9.65;;
71572;SDS011;59408;51.032;9.410;2022-12-18T11:46:52;20.27;;;8.88;;
71572;SDS011;59408;51.032;9.410;2022-12-18T11:49:26;20.60;;;9.30;;
71572;SDS011;59408;51.032;9.410;2022-12-18T11:51:59;19.73;;;9.40;;
71572;SDS011;59408;51.032;9.410;2022-12-18T11:54:30;22.58;;;9.25;;
71572;SDS011;59408;51.032;9.410;2022-12-18T11:56:58;19.75;;;9.20;;
71572;SDS011;59408;51.032;9.410;2022-12-18T11:59:33;26.52;;;10.18;;
71572;SDS011;59408;51.032;9.410;2022-12-18T12:02:14;23.58;;;11.57;;
71572;SDS011;59408;51.032;9.410;2022-12-18T12:05:01;23.60;;;10.13;;
71572;SDS011;59408;51.032;9.410;2022-12-18T12:07:42;23.20;;;10.70;;
71572;SDS011;59408;51.032;9.410;2022-12-18T12:10:22;24.67;;;12.20;;
71572;SDS011;59408;51.032;9.410;2022-12-18T12:12:59;28.95;;;13.15;;
71572;SDS011;59408;51.032;9.410;2022-12-18T12:15:40;22.77;;;10.85;;
71572;SDS011;59408;51.032;9.410;2022-12-18T12:18:22;27.30;;;12.13;;
71572;SDS011;59408;51.032;9.410;2022-12-18T12:20:58;29.83;;;13.88;;
71572;SDS011;59408;51.032;9.410;2022-12-18T12:23:35;31.38;;;14.68;;
71572;SDS011;59408;51.032;9.410;2022-12-18T12:26:09;30.60;;;13.57;;
71572;SDS011;59408;51.032;9.410;2022-12-18T12:28:47;29.08;;;13.60;;
71572;SDS011;59408;51.032;9.410;2022-12-18T12:31:27;30.93;;;12.03;;
71572;SDS011;59408;51.032;9.410;2022-12-18T12:34:06;34.17;;;14.30;;
71572;SDS011;59408;51.032;9.410;2022-12-18T12:36:46;29.70;;;13.02;;
71572;SDS011;59408;51.032;9.410;2022-12-18T12:39:22;25.42;;;12.13;;
71572;SDS011;59408;51.032;9.410;2022-12-18T12:41:53;28.23;;;11.90;;
71572;SDS011;59408;51.032;9.410;2022-12-18T12:44:22;24.47;;;11.40;;
71572;SDS011;59408;51.032;9.410;2022-12-18T12:46:54;26.10;;;11.05;;
71572;SDS011;59408;51.032;9.410;2022-12-18T12:49:28;26.48;;;11.65;;
71572;SDS011;59408;51.032;9.410;2022-12-18T12:52:06;23.73;;;11.30;;
71572;SDS011;59408;51.032;9.410;2022-12-18T12:54:38;24.02;;;10.20;;
71572;SDS011;59408;51.032;9.410;2022-12-18T12:57:07;29.00;;;10.97;;
71572;SDS011;59408;51.032;9.410;2022-12-18T12:59:41;23.73;;;10.38;;
71572;SDS011;59408;51.032;9.410;2022-12-18T13:02:18;29.23;;;12.70;;
71572;SDS011;59408;51.032;9.410;2022-12-18T13:04:52;22.73;;;10.68;;
71572;SDS011;59408;51.032;9.410;2022-12-18T13:07:27;23.65;;;12.20;;
71572;SDS011;59408;51.032;9.410;2022-12-18T13:10:12;26.57;;;12.07;;
71572;SDS011;59408;51.032;9.410;2022-12-18T13:12:55;25.42;;;11.45;;
71572;SDS011;59408;51.032;9.410;2022-12-18T13:15:25;19.45;;;10.35;;
71572;SDS011;59408;51.032;9.410;2022-12-18T13:18:11;23.70;;;10.85;;
71572;SDS011;59408;51.032;9.410;2022-12-18T13:20:46;27.13;;;11.75;;
71572;SDS011;59408;51.032;9.410;2022-12-18T13:23:31;24.47;;;9.80;;
71572;SDS011;59408;51.032;9.410;2022-12-18T13:26:00;24.38;;;10.15;;
71572;SDS011;59408;51.032;9.410;2022-12-18T13:29:01;20.85;;;8.70;;
71572;SDS011;59408;51.032;9.410;2022-12-18T13:34:33;22.52;;;9.82;;
71572;SDS011;59408;51.032;9.410;2022-12-18T13:43:22;19.05;;;8.85;;
71572;SDS011;59408;51.032;9.410;2022-12-18T13:45:59;17.77;;;8.05;;
71572;SDS011;59408;51.032;9.410;2022-12-18T13:48:29;20.13;;;9.35;;
71572;SDS011;59408;51.032;9.410;2022-12-18T13:50:59;24.07;;;10.57;;
71572;SDS011;59408;51.032;9.410;2022-12-18T13:53:29;24.42;;;10.25;;
71572;SDS011;59408;51.032;9.410;2022-12-18T13:55:59;21.30;;;9.52;;
71572;SDS011;59408;51.032;9.410;2022-12-18T13:58:27;21.00;;;9.10;;
71572;SDS011;59408;51.032;9.410;2022-12-18T14:00:53;21.70;;;10.30;;
71572;SDS011;59408;51.032;9.410;2022-12-18T14:03:21;21.47;;;9.40;;
71572;SDS011;59408;51.032;9.410;2022-12-18T14:05:53;22.83;;;9.45;;
71572;SDS011;59408;51.032;9.410;2022-12-18T14:08:26;19.95;;;9.32;;
71572;SDS011;59408;51.032;9.410;2022-12-18T14:10:58;21.45;;;10.52;;
71572;SDS011;59408;51.032;9.410;2022-12-18T14:13:28;29.33;;;12.27;;
71572;SDS011;59408;51.032;9.410;2022-12-18T14:15:56;25.10;;;12.13;;
71572;SDS011;59408;51.032;9.410;2022-12-18T14:18:29;27.77;;;12.27;;
71572;SDS011;59408;51.032;9.410;2022-12-18T14:21:03;27.52;;;12.38;;
71572;SDS011;59408;51.032;9.410;2022-12-18T14:23:31;27.35;;;12.35;;
71572;SDS011;59408;51.032;9.410;2022-12-18T14:26:00;43.80;;;20.42;;
71572;SDS011;59408;51.032;9.410;2022-12-18T14:28:32;42.87;;;20.50;;
71572;SDS011;59408;51.032;9.410;2022-12-18T14:30:59;32.58;;;15.93;;
71572;SDS011;59408;51.032;9.410;2022-12-18T14:33:26;28.70;;;13.98;;
71572;SDS011;59408;51.032;9.410;2022-12-18T14:35:55;28.05;;;13.43;;
71572;SDS011;59408;51.032;9.410;2022-12-18T14:38:25;29.17;;;14.10;;
71572;SDS011;59408;51.032;9.410;2022-12-18T14:40:55;27.43;;;12.70;;
71572;SDS011;59408;51.032;9.410;2022-12-18T14:43:23;24.65;;;12.32;;
71572;SDS011;59408;51.032;9.410;2022-12-18T14:45:51;25.90;;;12.30;;
71572;SDS011;59408;51.032;9.410;2022-12-18T14:48:20;26.60;;;11.82;;
71572;SDS011;59408;51.032;9.410;2022-12-18T14:50:56;30.77;;;13.82;;
71572;SDS011;59408;51.032;9.410;2022-12-18T14:53:30;27.30;;;13.13;;
71572;SDS011;59408;51.032;9.410;2022-12-18T14:56:00;28.42;;;13.82;;
71572;SDS011;59408;51.032;9.410;2022-12-18T14:58:27;30.50;;;14.25;;